Time;durP1;ratioP1;P1;durP2;ratioP2;P2;SDS_P1;SDS_P2;PMS_P1;PMS_P2;Temp;Humidity;BMP_temperature;BMP_pressure;BME280_temperature;BME280_humidity;BME280_pressure;Samples;Min_cycle;Max_cycle;Signal;HPM_P1;HPM_P2
2023/02/07 00:01:08;;;;;;;23.87;16.77;;;-0.10;99.90;;;;;;5113832;28;21042;-71
2023/02/07 00:03:36;;;;;;;20.30;16.40;;;-0.10;99.90;;;;;;5113971;28;20834;-71
2023/02/07 00:06:08;;;;;;;22.17;18.23;;;-0.10;99.90;;;;;;5113932;28;20435;-71
2023/02/07 00:08:39;;;;;;;25.57;16.83;;;-0.10;99.90;;;;;;5113377;28;20455;-71
2023/02/07 00:11:09;;;;;;;20.00;17.53;;;-0.10;99.90;;;;;;5114108;28;20452;-71
2023/02/07 00:13:38;;;;;;;21.10;16.77;;;-0.10;99.90;;;;;;5114116;28;20418;-71
2023/02/07 00:16:07;;;;;;;20.27;18.17;;;-0.10;99.90;;;;;;5095523;28;20443;-71
2023/02/07 00:18:35;;;;;;;17.50;15.67;;;-0.10;99.90;;;;;;5113427;28;20524;-71
2023/02/07 00:21:06;;;;;;;20.60;17.13;;;-0.10;99.90;;;;;;5113491;28;20937;-70
2023/02/07 00:23:35;;;;;;;19.67;16.13;;;-0.10;99.90;;;;;;5113844;28;20420;-70
2023/02/07 00:26:06;;;;;;;19.90;17.83;;;-0.20;99.90;;;;;;5113500;28;20431;-70
2023/02/07 00:28:35;;;;;;;20.60;15.23;;;-0.20;99.90;;;;;;5095321;28;20466;-71
2023/02/07 00:31:05;;;;;;;21.77;16.60;;;-0.20;99.90;;;;;;5113371;28;20896;-70
2023/02/07 00:33:33;;;;;;;18.13;16.23;;;-0.20;99.90;;;;;;5095164;28;21010;-71
2023/02/07 00:36:03;;;;;;;19.27;17.17;;;-0.30;99.90;;;;;;5095321;28;20459;-71
2023/02/07 00:38:31;;;;;;;18.60;16.63;;;-0.20;99.90;;;;;;5113742;28;20867;-71
2023/02/07 00:41:01;;;;;;;19.10;17.10;;;-0.30;99.90;;;;;;5095089;28;20946;-71
2023/02/07 00:43:31;;;;;;;19.27;17.20;;;-0.30;99.90;;;;;;5095148;28;20465;-71
2023/02/07 00:46:00;;;;;;;18.60;16.37;;;-0.30;99.90;;;;;;5095008;28;20455;-70
2023/02/07 00:48:30;;;;;;;25.00;20.70;;;-0.30;99.90;;;;;;5094993;28;20471;-70
2023/02/07 00:50:58;;;;;;;20.90;18.70;;;-0.30;99.90;;;;;;5113795;28;20485;-71
2023/02/07 00:53:28;;;;;;;24.83;22.50;;;-0.30;99.90;;;;;;5113515;28;20435;-71
2023/02/07 00:55:57;;;;;;;23.73;21.23;;;-0.40;99.90;;;;;;5095430;28;20843;-71
2023/02/07 00:58:25;;;;;;;24.37;21.87;;;-0.40;99.90;;;;;;5094845;28;20997;-71
2023/02/07 01:00:54;;;;;;;22.53;20.33;;;-0.40;99.90;;;;;;5113157;28;20992;-71
2023/02/07 01:03:23;;;;;;;27.60;21.90;;;-0.40;99.90;;;;;;5113688;28;20930;-71
2023/02/07 01:05:52;;;;;;;22.47;19.70;;;-0.40;99.90;;;;;;5094843;28;20443;-70
2023/02/07 01:08:20;;;;;;;22.23;18.87;;;-0.50;99.90;;;;;;5094851;28;21008;-71
2023/02/07 01:10:48;;;;;;;22.90;18.50;;;-0.50;99.90;;;;;;5113001;28;20486;-71
2023/02/07 01:13:17;;;;;;;20.77;17.80;;;-0.50;99.90;;;;;;5094836;28;20440;-71
2023/02/07 01:15:47;;;;;;;20.53;18.33;;;-0.50;99.90;;;;;;5113024;28;20442;-71
2023/02/07 01:18:17;;;;;;;22.70;20.30;;;-0.50;99.90;;;;;;5113457;28;20442;-71
2023/02/07 01:20:45;;;;;;;23.50;21.20;;;-0.60;99.90;;;;;;5097182;28;20447;-71
2023/02/07 01:23:14;;;;;;;22.30;19.83;;;-0.60;99.90;;;;;;5098800;28;20447;-70
2023/02/07 01:25:44;;;;;;;21.83;19.13;;;-0.60;99.90;;;;;;5116933;28;20458;-71
2023/02/07 01:28:14;;;;;;;23.37;20.87;;;-0.60;99.90;;;;;;5098109;28;20439;-70
2023/02/07 01:30:43;;;;;;;21.60;19.30;;;-0.60;99.90;;;;;;5098123;28;20522;-70
2023/02/07 01:33:12;;;;;;;23.37;21.07;;;-0.60;99.90;;;;;;5116706;28;20435;-70
2023/02/07 01:35:45;;;;;;;21.33;19.10;;;-0.60;99.90;;;;;;5098083;28;20968;-71
2023/02/07 01:38:13;;;;;;;21.83;19.40;;;-0.60;99.90;;;;;;5116549;28;20821;-70
2023/02/07 01:40:41;;;;;;;27.80;21.57;;;-0.70;99.90;;;;;;5097920;28;20455;-70
2023/02/07 01:43:17;;;;;;;27.43;21.43;;;-0.70;99.90;;;;;;5097960;28;20443;-71
2023/02/07 01:45:45;;;;;;;22.73;19.77;;;-0.70;99.90;;;;;;5097954;28;20435;-71
2023/02/07 01:48:19;;;;;;;23.60;21.13;;;-0.70;99.90;;;;;;5098027;28;20440;-70
2023/02/07 01:50:50;;;;;;;20.13;16.60;;;-0.80;99.90;;;;;;5097815;28;20455;-71
2023/02/07 01:53:22;;;;;;;23.37;20.90;;;-0.80;99.90;;;;;;5098043;28;20447;-71
2023/02/07 01:55:53;;;;;;;27.30;21.50;;;-0.80;99.90;;;;;;5116049;28;20416;-70
2023/02/07 01:58:22;;;;;;;24.97;20.93;;;-0.80;99.90;;;;;;5097575;28;20470;-70
2023/02/07 02:00:51;;;;;;;22.83;20.50;;;-0.80;99.90;;;;;;5097646;28;20497;-70
2023/02/07 02:03:19;;;;;;;24.73;22.07;;;-0.80;99.90;;;;;;5116124;28;20427;-70
2023/02/07 02:05:49;;;;;;;24.40;21.80;;;-0.80;99.90;;;;;;5116077;28;20438;-70
2023/02/07 02:08:17;;;;;;;26.17;22.07;;;-0.90;99.90;;;;;;5115911;28;20455;-71
2023/02/07 02:10:59;;;;;;;22.80;20.27;;;-0.90;99.90;;;;;;5097453;28;20488;-71
2023/02/07 02:13:36;;;;;;;21.93;19.37;;;-0.90;99.90;;;;;;5097613;28;20447;-70
2023/02/07 02:16:16;;;;;;;23.30;20.67;;;-0.90;99.90;;;;;;5116201;28;20415;-71
2023/02/07 02:19:11;;;;;;;26.23;19.60;;;-0.90;99.90;;;;;;5097513;28;20470;-71
2023/02/07 02:22:09;;;;;;;23.00;19.13;;;-1.00;99.90;;;;;;5115791;28;20443;-71
2023/02/07 02:25:20;;;;;;;25.47;22.47;;;-1.00;99.90;;;;;;5097189;28;20439;-70
2023/02/07 02:28:35;;;;;;;24.80;19.90;;;-1.00;99.90;;;;;;5097069;28;20444;-71
2023/02/07 02:31:23;;;;;;;24.37;20.03;;;-1.00;99.90;;;;;;5061927;28;20444;-71
2023/02/07 02:33:56;;;;;;;25.47;20.17;;;-1.00;99.90;;;;;;5096955;28;20915;-70
2023/02/07 02:36:34;;;;;;;28.93;21.67;;;-1.00;99.90;;;;;;5096920;28;20504;-70
2023/02/07 02:39:13;;;;;;;24.97;22.30;;;-1.00;99.90;;;;;;5096792;28;20469;-71
2023/02/07 02:41:50;;;;;;;22.37;19.83;;;-1.00;99.90;;;;;;5096852;28;20463;-70
2023/02/07 02:44:24;;;;;;;22.40;20.00;;;-1.00;99.90;;;;;;5097001;28;20427;-71
2023/02/07 02:46:55;;;;;;;21.90;19.60;;;-1.00;99.90;;;;;;5097522;28;20439;-70
2023/02/07 02:49:25;;;;;;;27.97;20.50;;;-1.00;99.90;;;;;;5115086;28;20475;-71
2023/02/07 02:51:53;;;;;;;24.67;22.07;;;-1.00;99.90;;;;;;5096501;28;20459;-71
2023/02/07 02:54:28;;;;;;;23.80;19.50;;;-1.00;99.90;;;;;;5096533;28;20439;-71
2023/02/07 02:57:39;;;;;;;22.40;19.83;;;-1.10;99.90;;;;;;5096596;28;20862;-70
2023/02/07 03:00:20;;;;;;;21.00;18.87;;;-1.10;99.90;;;;;;5096401;28;20463;-70
2023/02/07 03:02:58;;;;;;;23.73;20.10;;;-1.00;99.90;;;;;;5096381;28;20983;-71
2023/02/07 03:05:40;;;;;;;23.60;20.60;;;-1.00;99.90;;;;;;5096334;28;20488;-70
2023/02/07 03:08:25;;;;;;;25.50;18.40;;;-1.00;99.90;;;;;;5096227;28;20427;-70
2023/02/07 03:11:00;;;;;;;22.93;19.57;;;-1.00;99.90;;;;;;5096277;28;20474;-70
2023/02/07 03:13:33;;;;;;;22.60;20.30;;;-1.00;99.90;;;;;;5114693;28;20575;-70
2023/02/07 03:16:10;;;;;;;19.70;17.60;;;-1.00;99.90;;;;;;5114717;28;20411;-70
2023/02/07 03:18:47;;;;;;;20.13;17.87;;;-1.10;99.90;;;;;;5096343;28;20993;-71
2023/02/07 03:21:21;;;;;;;24.30;18.30;;;-1.00;99.90;;;;;;5114670;28;20418;-71
2023/02/07 03:23:51;;;;;;;21.13;18.90;;;-1.10;99.90;;;;;;5114822;28;20467;-71
2023/02/07 03:26:21;;;;;;;23.30;18.67;;;-1.10;99.90;;;;;;5096117;28;20431;-70
2023/02/07 03:28:54;;;;;;;22.00;19.30;;;-1.10;99.90;;;;;;5114487;28;20455;-71
2023/02/07 03:31:26;;;;;;;20.40;18.20;;;-1.10;99.90;;;;;;5095898;28;20431;-71
2023/02/07 03:34:02;;;;;;;24.90;19.47;;;-1.10;99.90;;;;;;5114376;28;20469;-71
2023/02/07 03:36:38;;;;;;;21.73;19.40;;;-1.10;99.90;;;;;;5114384;28;20417;-70
2023/02/07 03:39:06;;;;;;;22.67;19.17;;;-1.10;99.90;;;;;;5095786;28;20466;-70
2023/02/07 03:41:40;;;;;;;23.47;19.03;;;-1.20;99.90;;;;;;5095682;28;20443;-71
2023/02/07 03:44:10;;;;;;;23.53;19.97;;;-1.10;99.90;;;;;;5113835;28;20457;-71
2023/02/07 03:46:39;;;;;;;19.77;17.67;;;-1.20;99.90;;;;;;5113944;28;20526;-71
2023/02/07 03:49:08;;;;;;;21.87;19.10;;;-1.20;99.90;;;;;;5114086;28;20496;-71
2023/02/07 03:51:37;;;;;;;21.30;19.10;;;-1.20;99.90;;;;;;5114137;28;20773;-71
2023/02/07 03:54:06;;;;;;;24.00;19.13;;;-1.20;99.90;;;;;;5095554;28;20431;-71
2023/02/07 03:56:34;;;;;;;20.33;17.53;;;-1.20;99.90;;;;;;5095812;28;20443;-70
2023/02/07 03:59:02;;;;;;;20.60;18.30;;;-1.20;99.90;;;;;;5113671;28;20931;-71
2023/02/07 04:01:30;;;;;;;19.27;17.27;;;-1.30;99.90;;;;;;5095553;28;20472;-71
2023/02/07 04:03:58;;;;;;;21.50;18.97;;;-1.30;99.90;;;;;;5113920;28;20439;-70
2023/02/07 04:06:26;;;;;;;20.60;18.40;;;-1.30;99.90;;;;;;5095533;28;20436;-71
2023/02/07 04:08:56;;;;;;;22.40;19.10;;;-1.30;99.90;;;;;;5113698;28;20450;-71
2023/02/07 04:11:24;;;;;;;22.20;19.00;;;-1.30;99.90;;;;;;5095418;28;20512;-71
2023/02/07 04:13:52;;;;;;;29.17;24.73;;;-1.40;99.90;;;;;;5113498;28;20463;-71
2023/02/07 04:16:21;;;;;;;20.80;18.70;;;-1.40;99.90;;;;;;5113864;28;20530;-70
2023/02/07 04:18:49;;;;;;;23.70;19.23;;;-1.40;99.90;;;;;;5113688;28;20512;-71
2023/02/07 04:21:17;;;;;;;23.23;19.20;;;-1.40;99.90;;;;;;5095220;28;20439;-71
2023/02/07 04:23:45;;;;;;;20.77;18.57;;;-1.40;99.90;;;;;;5113981;28;20427;-71
2023/02/07 04:26:15;;;;;;;21.93;18.87;;;-1.40;99.90;;;;;;5113505;28;20435;-70
2023/02/07 04:28:43;;;;;;;23.23;20.73;;;-1.40;99.90;;;;;;5113407;28;20481;-70
2023/02/07 04:31:11;;;;;;;22.30;20.00;;;-1.50;99.90;;;;;;5113917;28;20489;-70
2023/02/07 04:33:39;;;;;;;24.17;21.17;;;-1.50;99.90;;;;;;5113307;28;20467;-70
2023/02/07 04:36:08;;;;;;;25.10;22.40;;;-1.50;99.90;;;;;;5113724;28;20432;-70
2023/02/07 04:38:36;;;;;;;25.23;22.13;;;-1.60;99.90;;;;;;5095017;28;20467;-70
2023/02/07 04:41:05;;;;;;;29.23;23.70;;;-1.60;99.90;;;;;;5113563;28;20434;-70
2023/02/07 04:43:37;;;;;;;26.47;22.50;;;-1.60;99.90;;;;;;5113272;28;20431;-70
2023/02/07 04:46:06;;;;;;;28.00;23.90;;;-1.60;99.90;;;;;;5113544;28;20871;-70
2023/02/07 04:48:37;;;;;;;27.57;24.57;;;-1.60;99.90;;;;;;5113350;28;20455;-70
2023/02/07 04:51:05;;;;;;;25.27;22.50;;;-1.60;99.90;;;;;;5113550;28;20422;-70
2023/02/07 04:53:34;;;;;;;26.47;22.37;;;-1.70;99.90;;;;;;5113961;28;20459;-70
2023/02/07 04:56:02;;;;;;;26.40;22.57;;;-1.70;99.90;;;;;;5117098;28;20439;-70
2023/02/07 04:58:30;;;;;;;25.03;21.67;;;-1.70;99.90;;;;;;5117149;28;20489;-70
2023/02/07 05:01:00;;;;;;;26.63;23.40;;;-1.70;99.90;;;;;;5117338;28;20500;-70
2023/02/07 05:03:28;;;;;;;24.87;21.90;;;-1.70;99.90;;;;;;5116932;28;20433;-69
2023/02/07 05:05:56;;;;;;;28.93;23.40;;;-1.70;99.90;;;;;;5116911;28;21059;-70
2023/02/07 05:08:24;;;;;;;26.07;22.60;;;-1.70;99.90;;;;;;5116750;28;20571;-70
2023/02/07 05:10:54;;;;;;;24.27;21.67;;;-1.70;99.90;;;;;;5117047;28;20419;-70
2023/02/07 05:13:23;;;;;;;26.43;22.50;;;-1.80;99.90;;;;;;5098466;28;20463;-70
2023/02/07 05:15:52;;;;;;;23.00;20.23;;;-1.80;99.90;;;;;;5098469;28;20451;-70
2023/02/07 05:18:21;;;;;;;27.60;22.93;;;-1.80;99.90;;;;;;5116843;28;20463;-70
2023/02/07 05:20:49;;;;;;;26.07;22.87;;;-1.80;99.90;;;;;;5116893;28;20438;-70
2023/02/07 05:23:19;;;;;;;25.60;22.90;;;-1.80;99.90;;;;;;5116897;28;20426;-70
2023/02/07 05:25:48;;;;;;;25.83;23.10;;;-1.80;99.90;;;;;;5117199;28;20431;-69
2023/02/07 05:28:16;;;;;;;25.67;22.93;;;-1.80;99.90;;;;;;5116689;28;20443;-69
2023/02/07 05:30:44;;;;;;;27.20;23.20;;;-1.90;99.90;;;;;;5116708;28;20431;-70
2023/02/07 05:33:12;;;;;;;24.73;21.90;;;-1.90;99.90;;;;;;5116607;28;21019;-70
2023/02/07 05:35:43;;;;;;;25.30;22.53;;;-1.90;99.90;;;;;;5098067;28;20443;-70
2023/02/07 05:38:13;;;;;;;25.60;22.80;;;-1.90;99.90;;;;;;5097970;28;20436;-70
2023/02/07 05:40:42;;;;;;;27.70;24.80;;;-1.90;99.90;;;;;;5116828;28;20876;-70
2023/02/07 05:43:11;;;;;;;27.17;23.10;;;-1.90;99.90;;;;;;5116511;28;20435;-70
2023/02/07 05:45:40;;;;;;;25.83;22.20;;;-1.90;99.90;;;;;;5116439;28;20960;-70
2023/02/07 05:48:08;;;;;;;28.03;24.40;;;-2.00;99.90;;;;;;5116383;28;20535;-70
2023/02/07 05:50:36;;;;;;;31.20;26.23;;;-2.00;99.90;;;;;;5116342;28;20437;-70
2023/02/07 05:53:08;;;;;;;38.00;34.00;;;-2.00;99.90;;;;;;5097597;28;20474;-70
2023/02/07 05:55:36;;;;;;;32.43;27.83;;;-2.00;99.90;;;;;;5097708;28;20492;-70
2023/02/07 05:58:05;;;;;;;30.87;27.50;;;-2.00;99.90;;;;;;5115767;28;20837;-70
2023/02/07 06:00:33;;;;;;;29.57;26.47;;;-2.00;99.90;;;;;;5097728;28;20435;-70
2023/02/07 06:03:02;;;;;;;31.90;25.53;;;-2.00;99.90;;;;;;5097864;28;20736;-70
2023/02/07 06:05:31;;;;;;;28.53;25.10;;;-2.00;99.90;;;;;;5096802;28;20443;-70
2023/02/07 06:08:00;;;;;;;30.07;25.13;;;-2.00;99.90;;;;;;5115909;28;20846;-70
2023/02/07 06:10:29;;;;;;;30.10;24.63;;;-2.10;99.90;;;;;;5097523;28;20439;-70
2023/02/07 06:12:57;;;;;;;28.30;23.77;;;-2.10;99.90;;;;;;5115642;28;20439;-70
2023/02/07 06:15:25;;;;;;;30.20;26.60;;;-2.00;99.90;;;;;;5116050;28;20435;-69
2023/02/07 06:17:53;;;;;;;27.30;24.50;;;-2.10;99.90;;;;;;5115528;28;20435;-71
2023/02/07 06:20:22;;;;;;;28.30;25.30;;;-2.10;99.90;;;;;;5115604;28;20463;-70
2023/02/07 06:22:51;;;;;;;28.93;25.90;;;-2.10;99.90;;;;;;5097258;28;20812;-70
2023/02/07 06:25:19;;;;;;;28.07;24.53;;;-2.10;99.90;;;;;;5115436;28;20427;-70
2023/02/07 06:27:50;;;;;;;28.03;25.10;;;-2.10;99.90;;;;;;5115931;28;20768;-70
2023/02/07 06:30:18;;;;;;;27.70;24.80;;;-2.10;99.90;;;;;;5115157;28;20463;-70
2023/02/07 06:32:46;;;;;;;28.40;25.13;;;-2.20;99.90;;;;;;5115308;28;20799;-70
2023/02/07 06:35:15;;;;;;;29.93;25.07;;;-2.20;99.90;;;;;;5115103;28;20961;-70
2023/02/07 06:37:43;;;;;;;25.23;22.53;;;-2.20;99.90;;;;;;5096891;28;20490;-70
2023/02/07 06:40:11;;;;;;;30.40;24.17;;;-2.20;99.90;;;;;;5096886;28;20526;-70
2023/02/07 06:42:39;;;;;;;27.13;24.27;;;-2.20;99.90;;;;;;5098148;28;20443;-70
2023/02/07 06:45:10;;;;;;;28.08;24.52;;;-2.20;99.90;;;;;;5096566;28;20533;-70
2023/02/07 06:47:38;;;;;;;29.03;26.03;;;-2.20;99.90;;;;;;5096670;28;20181;-70
2023/02/07 06:50:06;;;;;;;30.67;27.23;;;-2.20;99.90;;;;;;5114902;28;20447;-70
2023/02/07 06:52:36;;;;;;;29.20;25.13;;;-2.30;99.90;;;;;;5115443;28;20432;-70
2023/02/07 06:55:04;;;;;;;32.23;25.40;;;-2.30;99.90;;;;;;5096633;28;20474;-70
2023/02/07 06:57:32;;;;;;;28.70;25.57;;;-2.30;99.90;;;;;;5114660;28;20442;-70
2023/02/07 07:00:00;;;;;;;28.23;23.53;;;-2.30;99.90;;;;;;5115321;28;20455;-70
2023/02/07 07:02:30;;;;;;;27.77;23.87;;;-2.30;99.90;;;;;;5114665;28;20485;-70
2023/02/07 07:04:58;;;;;;;27.90;23.53;;;-2.30;99.90;;;;;;5114891;28;20918;-71
2023/02/07 07:07:26;;;;;;;30.47;25.20;;;-2.30;99.90;;;;;;5096395;28;20435;-70
2023/02/07 07:09:55;;;;;;;27.80;24.20;;;-2.30;99.90;;;;;;5114671;28;20474;-71
2023/02/07 07:12:23;;;;;;;31.77;24.40;;;-2.30;99.90;;;;;;5114505;28;20964;-71
2023/02/07 07:14:51;;;;;;;26.97;23.03;;;-2.30;99.90;;;;;;5114665;28;20899;-71
2023/02/07 07:17:19;;;;;;;26.73;23.73;;;-2.30;99.90;;;;;;5113744;28;20447;-70
2023/02/07 07:19:48;;;;;;;42.33;33.23;;;-2.40;99.90;;;;;;5096024;28;20471;-70
2023/02/07 07:22:17;;;;;;;37.87;31.63;;;-2.30;99.90;;;;;;5114619;28;20941;-71
2023/02/07 07:24:47;;;;;;;34.57;28.27;;;-2.40;99.90;;;;;;5114639;28;20469;-71
2023/02/07 07:27:15;;;;;;;30.30;27.00;;;-2.40;99.90;;;;;;5114524;28;20501;-71
2023/02/07 07:29:43;;;;;;;35.67;30.60;;;-2.30;99.90;;;;;;5114065;28;20886;-70
2023/02/07 07:32:11;;;;;;;32.57;27.67;;;-2.30;99.90;;;;;;5114405;28;20435;-71
2023/02/07 07:34:57;;;;;;;32.93;29.10;;;-2.30;99.90;;;;;;5114502;28;20455;-71
2023/02/07 07:37:25;;;;;;;36.37;29.60;;;-2.30;99.90;;;;;;5114052;28;20424;-71
2023/02/07 07:39:53;;;;;;;32.13;26.97;;;-2.30;99.90;;;;;;5114509;28;20447;-71
2023/02/07 07:42:21;;;;;;;31.03;27.03;;;-2.30;99.90;;;;;;5114630;28;20956;-70
2023/02/07 07:45:00;;;;;;;32.40;28.17;;;-2.20;99.90;;;;;;5095965;28;20522;-71
2023/02/07 07:47:28;;;;;;;30.83;27.20;;;-2.20;99.90;;;;;;5114329;28;20435;-70
2023/02/07 07:49:58;;;;;;;31.23;27.67;;;-2.20;99.90;;;;;;5114068;28;20451;-70
2023/02/07 07:52:26;;;;;;;31.63;27.10;;;-2.20;99.90;;;;;;5095542;28;20538;-71
2023/02/07 07:54:54;;;;;;;31.97;28.00;;;-2.20;99.90;;;;;;5113979;28;20470;-71
2023/02/07 07:57:26;;;;;;;29.57;26.40;;;-2.10;99.90;;;;;;5113648;28;20427;-71
2023/02/07 07:59:55;;;;;;;30.60;27.27;;;-2.10;99.90;;;;;;5095640;28;20520;-70
2023/02/07 08:02:23;;;;;;;29.73;23.77;;;-2.10;99.90;;;;;;5095545;28;20482;-70
2023/02/07 08:04:52;;;;;;;32.77;29.27;;;-2.10;99.90;;;;;;5095441;28;20443;-71
2023/02/07 08:07:21;;;;;;;32.23;27.10;;;-2.00;99.90;;;;;;5113959;28;20442;-70
2023/02/07 08:09:49;;;;;;;31.90;27.90;;;-2.00;99.90;;;;;;5095360;28;20475;-71
2023/02/07 08:12:17;;;;;;;33.17;29.57;;;-2.00;99.90;;;;;;5095385;28;20869;-71
2023/02/07 08:14:45;;;;;;;33.83;30.30;;;-2.00;99.90;;;;;;5095292;28;20468;-71
2023/02/07 08:17:13;;;;;;;35.10;30.60;;;-1.90;99.90;;;;;;5095435;28;20443;-71
2023/02/07 08:19:41;;;;;;;33.07;29.53;;;-1.90;99.90;;;;;;5113526;28;20459;-71
2023/02/07 08:22:09;;;;;;;33.83;30.13;;;-1.90;99.90;;;;;;5114052;28;20431;-71
2023/02/07 08:24:40;;;;;;;35.70;32.00;;;-1.80;99.90;;;;;;5113830;28;20435;-70
2023/02/07 08:27:09;;;;;;;33.97;30.23;;;-1.80;99.90;;;;;;5113991;28;20471;-71
2023/02/07 08:29:37;;;;;;;37.37;30.93;;;-1.80;99.90;;;;;;5097641;28;20536;-71
2023/02/07 08:32:05;;;;;;;31.80;28.50;;;-1.80;99.90;;;;;;5117857;28;20437;-71
2023/02/07 08:34:36;;;;;;;34.70;30.87;;;-1.70;99.90;;;;;;5099195;28;21005;-71
2023/02/07 08:37:07;;;;;;;34.63;30.73;;;-1.70;99.90;;;;;;5099754;28;20488;-71
2023/02/07 08:39:35;;;;;;;37.03;30.33;;;-1.60;99.90;;;;;;5117572;28;20458;-70
2023/02/07 08:42:07;;;;;;;38.00;32.00;;;-1.60;99.90;;;;;;5117879;28;20496;-71
2023/02/07 08:44:35;;;;;;;38.63;31.90;;;-1.60;99.90;;;;;;5117785;28;20898;-71
2023/02/07 08:47:04;;;;;;;36.00;30.63;;;-1.60;99.90;;;;;;5117676;28;20435;-71
2023/02/07 08:49:32;;;;;;;37.67;32.60;;;-1.50;99.90;;;;;;5117268;28;20843;-71
2023/02/07 08:52:00;;;;;;;35.43;31.60;;;-1.50;99.90;;;;;;5117847;28;20431;-71
2023/02/07 08:54:28;;;;;;;36.90;32.73;;;-1.40;99.90;;;;;;5117113;28;20981;-71
2023/02/07 08:56:56;;;;;;;38.17;33.53;;;-1.40;99.90;;;;;;5117531;28;20439;-71
2023/02/07 08:59:26;;;;;;;38.87;34.77;;;-1.30;99.90;;;;;;5117093;28;20968;-70
2023/02/07 09:01:54;;;;;;;37.60;33.67;;;-1.30;99.90;;;;;;5117402;28;20450;-71
2023/02/07 09:04:22;;;;;;;36.93;33.00;;;-1.20;99.90;;;;;;5117630;28;20530;-71
2023/02/07 09:06:50;;;;;;;40.57;36.17;;;-1.20;99.90;;;;;;5117032;28;20506;-71
2023/02/07 09:09:18;;;;;;;40.00;33.00;;;-1.10;99.90;;;;;;5116789;28;20463;-71
2023/02/07 09:11:47;;;;;;;38.50;33.57;;;-1.10;99.90;;;;;;5116913;28;20438;-70
2023/02/07 09:14:15;;;;;;;38.03;33.73;;;-1.00;99.90;;;;;;5117062;28;20463;-71
2023/02/07 09:16:44;;;;;;;36.90;32.73;;;-1.00;99.90;;;;;;5116941;28;20516;-71
2023/02/07 09:19:12;;;;;;;38.77;33.97;;;-0.90;99.90;;;;;;5116910;28;20455;-71
2023/02/07 09:21:40;;;;;;;38.70;34.50;;;-0.90;99.90;;;;;;5116682;28;20922;-71
2023/02/07 09:24:08;;;;;;;42.70;36.40;;;-0.80;99.90;;;;;;5098407;28;20436;-71
2023/02/07 09:26:37;;;;;;;39.50;35.30;;;-0.80;99.90;;;;;;5098250;28;20546;-71
2023/02/07 09:29:06;;;;;;;35.87;31.97;;;-0.80;99.90;;;;;;5116555;28;21019;-71
2023/02/07 09:31:34;;;;;;;35.60;31.80;;;-0.70;99.90;;;;;;5116476;28;20981;-71
2023/02/07 09:34:04;;;;;;;40.23;35.93;;;-0.70;99.90;;;;;;5116709;28;20432;-71
2023/02/07 09:36:32;;;;;;;38.83;34.83;;;-0.70;99.90;;;;;;5116275;28;20467;-71
2023/02/07 09:39:01;;;;;;;35.80;31.90;;;-0.60;99.90;;;;;;5116604;28;20962;-71
2023/02/07 09:41:39;;;;;;;38.47;34.50;;;-0.60;99.90;;;;;;5115461;28;20523;-71
2023/02/07 09:44:15;;;;;;;37.63;33.70;;;-0.50;99.90;;;;;;5116805;28;20451;-71
2023/02/07 09:46:49;;;;;;;33.70;30.10;;;-0.50;99.90;;;;;;5097951;28;20431;-71
2023/02/07 09:49:29;;;;;;;36.97;33.00;;;-0.40;99.90;;;;;;5097851;28;20467;-71
2023/02/07 09:51:59;;;;;;;34.30;30.70;;;-0.40;99.90;;;;;;5116441;28;20419;-71
2023/02/07 09:54:33;;;;;;;33.93;30.40;;;-0.40;99.90;;;;;;5116358;28;20416;-71
2023/02/07 09:57:05;;;;;;;34.17;29.67;;;-0.30;99.90;;;;;;5116272;28;20834;-71
2023/02/07 09:59:42;;;;;;;35.13;31.73;;;-0.30;99.90;;;;;;5097618;28;21019;-71
2023/02/07 10:02:20;;;;;;;33.03;29.50;;;-0.20;99.90;;;;;;5116552;28;20453;-71
2023/02/07 10:04:54;;;;;;;37.17;33.20;;;-0.20;99.90;;;;;;5116212;28;20913;-71
2023/02/07 10:07:22;;;;;;;37.13;33.40;;;-0.10;99.90;;;;;;5116401;28;20481;-71
2023/02/07 10:09:50;;;;;;;34.27;30.57;;;-0.10;99.90;;;;;;5115688;28;20455;-71
2023/02/07 10:12:43;;;;;;;34.70;31.27;;;0.00;99.90;;;;;;5115985;28;20447;-71
2023/02/07 10:15:36;;;;;;;36.13;32.40;;;0.00;99.90;;;;;;5113289;28;20447;-71
2023/02/07 10:18:20;;;;;;;33.53;30.23;;;0.10;99.90;;;;;;5115846;28;20465;-71
2023/02/07 10:20:56;;;;;;;30.13;27.10;;;0.10;99.90;;;;;;5115886;28;20424;-71
2023/02/07 10:23:50;;;;;;;30.57;27.57;;;0.20;99.90;;;;;;5115506;28;20467;-71
2023/02/07 10:26:24;;;;;;;33.93;30.63;;;0.20;99.90;;;;;;5115565;28;20414;-71
2023/02/07 10:29:32;;;;;;;33.17;29.90;;;0.30;99.90;;;;;;5097194;28;20467;-71
2023/02/07 10:32:09;;;;;;;33.10;29.70;;;0.40;99.90;;;;;;5115594;28;20437;-71
2023/02/07 10:34:40;;;;;;;30.47;27.60;;;0.40;99.90;;;;;;5115557;28;20419;-71
2023/02/07 10:37:18;;;;;;;32.07;29.07;;;0.50;99.90;;;;;;5115461;28;20959;-71
2023/02/07 10:39:58;;;;;;;30.90;28.10;;;0.50;99.90;;;;;;5115082;28;20551;-71
2023/02/07 10:42:28;;;;;;;29.07;26.23;;;0.60;99.90;;;;;;5115888;28;20421;-71
2023/02/07 10:44:57;;;;;;;28.60;25.80;;;0.60;99.90;;;;;;5115349;28;20890;-71
2023/02/07 10:47:25;;;;;;;27.53;24.73;;;0.70;99.90;;;;;;5114995;28;20935;-71
2023/02/07 10:49:55;;;;;;;28.23;25.43;;;0.70;99.90;;;;;;5115033;28;20452;-72
2023/02/07 10:52:32;;;;;;;28.90;26.00;;;0.80;99.90;;;;;;5114818;28;20906;-71
2023/02/07 10:55:04;;;;;;;28.17;25.53;;;0.80;99.90;;;;;;5115215;28;20822;-72
2023/02/07 10:57:32;;;;;;;27.87;25.17;;;0.90;99.90;;;;;;5096566;28;20579;-72
2023/02/07 11:00:05;;;;;;;26.20;23.70;;;1.00;99.90;;;;;;5115022;28;20449;-71
2023/02/07 11:02:43;;;;;;;26.43;23.93;;;1.00;99.90;;;;;;5115337;28;20419;-72
2023/02/07 11:05:31;;;;;;;27.00;24.37;;;1.00;99.90;;;;;;5115003;28;20425;-72
2023/02/07 11:08:04;;;;;;;26.70;24.03;;;1.10;99.90;;;;;;5114850;28;20424;-72
2023/02/07 11:10:35;;;;;;;25.33;22.87;;;1.20;99.90;;;;;;5114583;28;20953;-72
2023/02/07 11:13:06;;;;;;;24.40;22.17;;;1.20;99.90;;;;;;5096383;28;20449;-72
2023/02/07 11:15:39;;;;;;;23.87;21.57;;;1.30;99.90;;;;;;5096478;28;20444;-72
2023/02/07 11:18:08;;;;;;;26.53;24.03;;;1.30;99.90;;;;;;5114331;28;20486;-72
2023/02/07 11:20:39;;;;;;;24.50;22.20;;;1.40;99.90;;;;;;5114395;28;20439;-72
2023/02/07 11:23:14;;;;;;;23.87;21.50;;;1.40;99.90;;;;;;5115002;28;20778;-72
2023/02/07 11:25:44;;;;;;;24.23;21.90;;;1.50;99.90;;;;;;5096114;28;20452;-72
2023/02/07 11:28:19;;;;;;;25.90;23.43;;;1.50;99.90;;;;;;5114495;28;20421;-72
2023/02/07 11:30:54;;;;;;;23.50;21.40;;;1.60;99.90;;;;;;5096331;28;20907;-72
2023/02/07 11:33:26;;;;;;;23.43;21.33;;;1.60;99.90;;;;;;5114501;28;20463;-72
2023/02/07 11:36:22;;;;;;;22.30;20.10;;;1.70;99.90;;;;;;5114400;28;20524;-72
2023/02/07 11:38:55;;;;;;;22.50;20.50;;;1.70;99.90;;;;;;5114616;28;20808;-72
2023/02/07 11:41:26;;;;;;;21.60;19.57;;;1.80;99.90;;;;;;5114314;28;20432;-72
2023/02/07 11:43:58;;;;;;;21.27;19.27;;;1.80;99.90;;;;;;5115020;28;20425;-72
2023/02/07 11:46:38;;;;;;;21.37;19.40;;;1.90;99.90;;;;;;5114887;28;20416;-72
2023/02/07 11:49:17;;;;;;;21.77;19.17;;;1.90;99.90;;;;;;5114066;28;20453;-72
2023/02/07 11:51:45;;;;;;;19.47;17.67;;;2.00;99.90;;;;;;5114202;28;20419;-72
2023/02/07 11:54:16;;;;;;;19.30;17.53;;;2.00;99.90;;;;;;5114130;28;20429;-72
2023/02/07 11:56:48;;;;;;;21.27;19.37;;;2.00;99.90;;;;;;5114073;28;20523;-72
2023/02/07 11:59:20;;;;;;;21.67;19.67;;;2.10;99.90;;;;;;5113677;28;20479;-72
2023/02/07 12:01:50;;;;;;;24.77;22.40;;;2.10;99.90;;;;;;5114078;28;20900;-72
2023/02/07 12:04:24;;;;;;;23.43;21.30;;;2.10;99.90;;;;;;5113173;28;20837;-72
2023/02/07 12:06:57;;;;;;;22.17;20.17;;;2.20;99.90;;;;;;5095832;28;20476;-72
2023/02/07 12:09:34;;;;;;;21.93;19.93;;;2.20;99.90;;;;;;5113672;28;20543;-72
2023/02/07 12:12:07;;;;;;;19.93;18.20;;;2.20;99.90;;;;;;5095417;28;20824;-72
2023/02/07 12:14:41;;;;;;;19.77;18.00;;;2.30;99.90;;;;;;5095648;28;20844;-72
2023/02/07 12:17:18;;;;;;;18.17;16.40;;;2.30;99.90;;;;;;5114321;28;20453;-71
2023/02/07 12:19:53;;;;;;;19.00;17.20;;;2.30;99.90;;;;;;5095564;28;20851;-72
2023/02/07 12:22:26;;;;;;;18.33;16.73;;;2.40;99.90;;;;;;5113793;28;20432;-72
2023/02/07 12:25:02;;;;;;;20.57;18.70;;;2.40;99.90;;;;;;5113801;28;20780;-72
2023/02/07 12:27:36;;;;;;;21.43;19.43;;;2.40;99.90;;;;;;5095549;28;20439;-72
2023/02/07 12:30:14;;;;;;;21.23;19.27;;;2.50;99.90;;;;;;5095259;28;20467;-72
2023/02/07 12:32:52;;;;;;;21.33;19.33;;;2.50;99.90;;;;;;5113817;28;20425;-72
2023/02/07 12:35:26;;;;;;;20.00;18.17;;;2.50;99.90;;;;;;5113442;28;20439;-72
2023/02/07 12:38:05;;;;;;;19.20;17.40;;;2.60;99.90;;;;;;5113985;28;20481;-72
2023/02/07 12:40:40;;;;;;;21.10;19.10;;;2.60;99.90;;;;;;5095177;28;20930;-71
2023/02/07 12:43:14;;;;;;;19.27;17.53;;;2.60;99.90;;;;;;5095186;28;20446;-72
2023/02/07 12:46:00;;;;;;;18.57;16.87;;;2.60;99.90;;;;;;5113950;28;20881;-72
2023/02/07 12:48:42;;;;;;;16.50;15.10;;;2.70;99.90;;;;;;5113461;28;20460;-72
2023/02/07 12:51:24;;;;;;;18.83;17.13;;;2.70;99.90;;;;;;5095058;28;20458;-72